Ana Sayfa
METAR-TAF:

METAR-TAF

Havaalanları :

Waco, Teksas, Amerika Birleşik Devletleri

Enlem: 31-38-16N, Boylam: 097-04-27W, yükseklik: 143 m

Güncel hava durumu gözlemi

Rapor saat 20:55 UTC de 43 dakika önce yapıldı.
Rüzgar batı/kuzeybatıdan 12 kt ve 20 kt'a kadar ani rüzgarlar
Sıcaklık 22°C
Nem 29%
Basınç 1008 hPa
Görüş mesafesi: 16.1 km
Açık gökyüzü

METAR: KCNW 242055Z 29012G20KT 10SM SKC 22/03 A2976

Saat: 14:38 (21:38 UTC)


TAF: eksik

4.000'den fazla havaalanı için hava durumu gözlemleri ve tahminleri (METAR ve TAF raporları).

Kullanılabilir istasyonlar harita üzerinde sarı ve kırmızı noktalarla gösterilir.

İstasyonun adını görmek için fareyi noktanın üzerinde gezdirin.

Sonrasında hava gözlem ve tahminlerini görmek için tıklayın.

Haritayı değiştirmek için: yaklaştırmak için siyah artı işaretli yeşil düğmeye ve uzaklaştırmak için de eksi işaretli düğmeye hızla tıklayın; bitişik haritalar için yeşil okları kullanın.


METAR-TAF: